Time;durP1;ratioP1;P1;durP2;ratioP2;P2;SDS_P1;SDS_P2;PMS_P1;PMS_P2;Temp;Humidity;BMP_temperature;BMP_pressure;BME280_temperature;BME280_humidity;BME280_pressure;Samples;Min_cycle;Max_cycle;Signal;HPM_P1;HPM_P2
2021/05/05 00:00:55;;;;;;;13.32;2.17;;;9.50;99.90;;;;;;2111795;28;20027;-63
2021/05/05 00:01:58;;;;;;;18.50;3.20;;;9.50;99.90;;;;;;2107748;28;20197;-63
2021/05/05 00:02:58;;;;;;;;;;;9.50;99.90;;;;;;2111148;28;20117;-63
2021/05/05 00:03:59;;;;;;;20.63;2.70;;;9.50;99.90;;;;;;2110635;28;19947;-63
2021/05/05 00:05:00;;;;;;;22.13;3.80;;;9.60;99.90;;;;;;2111200;28;20455;-63
2021/05/05 00:06:02;;;;;;;18.25;2.92;;;9.60;99.90;;;;;;2111251;28;20633;-63
2021/05/05 00:07:03;;;;;;;27.83;3.40;;;9.50;99.90;;;;;;2112155;28;20020;-64
2021/05/05 00:08:03;;;;;;;24.50;3.38;;;9.50;99.90;;;;;;2111976;28;20031;-63
2021/05/05 00:09:05;;;;;;;15.75;2.72;;;9.50;99.90;;;;;;2111875;28;20131;-63
2021/05/05 00:10:06;;;;;;;19.98;3.33;;;9.50;99.90;;;;;;2112158;28;20031;-63
2021/05/05 00:11:07;;;;;;;20.10;2.72;;;9.60;99.90;;;;;;2105362;28;20016;-64
2021/05/05 00:12:08;;;;;;;25.20;3.30;;;9.60;99.90;;;;;;2108813;28;20028;-63
2021/05/05 00:13:09;;;;;;;26.88;4.30;;;9.70;99.90;;;;;;2108770;28;20464;-63
2021/05/05 00:14:11;;;;;;;26.27;3.90;;;9.70;99.90;;;;;;2105762;28;20020;-63
2021/05/05 00:15:18;;;;;;;39.38;3.90;;;9.70;99.90;;;;;;2105930;28;20012;-64
2021/05/05 00:16:19;;;;;;;18.58;3.88;;;9.60;99.90;;;;;;2105434;28;20106;-63
2021/05/05 00:17:20;;;;;;;18.00;2.92;;;9.60;99.90;;;;;;2097155;28;20025;-63
2021/05/05 00:18:20;;;;;;;16.13;2.67;;;9.50;99.90;;;;;;2097118;28;20127;-63
2021/05/05 00:19:21;;;;;;;17.38;2.40;;;9.40;99.90;;;;;;2103955;28;20484;-64
2021/05/05 00:20:22;;;;;;;13.32;2.20;;;9.30;99.90;;;;;;2101104;28;20672;-63
2021/05/05 00:21:23;;;;;;;16.05;2.28;;;9.30;99.90;;;;;;2102361;28;20073;-63
2021/05/05 00:22:24;;;;;;;29.65;3.45;;;9.20;99.90;;;;;;2106123;28;20109;-63
2021/05/05 00:23:25;;;;;;;18.00;3.22;;;9.20;99.90;;;;;;2104065;28;20061;-63
2021/05/05 00:24:26;;;;;;;21.20;2.63;;;9.20;99.90;;;;;;2104659;28;20012;-63
2021/05/05 00:25:27;;;;;;;19.88;2.90;;;9.10;99.90;;;;;;2105391;28;20020;-63
2021/05/05 00:26:27;;;;;;;19.80;3.00;;;9.10;99.90;;;;;;2110453;28;20043;-63
2021/05/05 00:27:28;;;;;;;22.00;2.58;;;9.10;99.90;;;;;;2105839;28;20579;-63
2021/05/05 00:28:29;;;;;;;18.85;2.53;;;9.10;99.90;;;;;;2099891;28;20020;-65
2021/05/05 00:29:29;;;;;;;19.20;2.33;;;9.10;99.90;;;;;;2098883;28;20008;-63
2021/05/05 00:30:31;;;;;;;14.93;3.25;;;9.10;99.90;;;;;;2105790;28;20567;-63
2021/05/05 00:31:32;;;;;;;17.93;3.17;;;9.00;99.90;;;;;;2106205;28;20035;-62
2021/05/05 00:32:33;;;;;;;18.05;2.63;;;9.00;99.90;;;;;;2106081;28;20258;-63
2021/05/05 00:33:34;;;;;;;20.48;2.33;;;9.00;99.90;;;;;;2099398;28;20028;-63
2021/05/05 00:34:35;;;;;;;19.67;2.70;;;9.00;99.90;;;;;;2099644;28;20090;-63
2021/05/05 00:35:36;;;;;;;16.80;2.42;;;8.90;99.90;;;;;;2100845;28;20032;-63
2021/05/05 00:36:37;;;;;;;21.05;3.17;;;8.90;99.90;;;;;;2102837;28;20126;-63
2021/05/05 00:37:37;;;;;;;19.13;3.47;;;8.90;99.90;;;;;;2106155;28;20020;-63
2021/05/05 00:38:38;;;;;;;21.58;3.42;;;8.90;99.90;;;;;;2105974;28;20532;-63
2021/05/05 00:39:39;;;;;;;14.57;2.30;;;8.80;99.90;;;;;;2106102;28;20044;-63
2021/05/05 00:40:39;;;;;;;20.05;3.05;;;8.80;99.90;;;;;;2105232;28;20111;-63
2021/05/05 00:41:40;;;;;;;19.00;2.72;;;8.90;99.90;;;;;;2103729;28;20066;-63
2021/05/05 00:42:41;;;;;;;18.58;3.40;;;8.80;99.90;;;;;;2099535;28;20049;-63
2021/05/05 00:43:42;;;;;;;22.90;3.17;;;8.90;99.90;;;;;;2103527;28;20020;-63
2021/05/05 00:44:43;;;;;;;19.67;2.33;;;8.90;99.90;;;;;;2106258;28;20035;-63
2021/05/05 00:45:43;;;;;;;16.45;2.60;;;8.90;99.90;;;;;;2105737;28;20028;-63
2021/05/05 00:46:44;;;;;;;16.65;3.58;;;8.80;99.90;;;;;;2104042;28;20020;-63
2021/05/05 00:47:45;;;;;;;20.63;3.05;;;8.80;99.90;;;;;;2100502;28;20021;-63
2021/05/05 00:48:45;;;;;;;13.30;2.65;;;8.80;99.90;;;;;;2106043;28;20015;-63
2021/05/05 00:49:46;;;;;;;26.48;2.92;;;8.70;99.90;;;;;;2097734;28;20099;-63
2021/05/05 00:50:47;;;;;;;17.92;2.88;;;8.70;99.90;;;;;;2102248;28;20063;-63
2021/05/05 00:51:47;;;;;;;20.10;3.67;;;8.70;99.90;;;;;;2105458;28;20016;-63
2021/05/05 00:52:48;;;;;;;18.27;2.85;;;8.70;99.90;;;;;;2105388;28;20032;-63
2021/05/05 00:53:49;;;;;;;16.23;3.08;;;8.70;99.90;;;;;;2103833;28;20016;-63
2021/05/05 00:54:51;;;;;;;14.95;2.00;;;8.80;99.90;;;;;;2105366;28;20071;-63
2021/05/05 00:55:51;;;;;;;20.73;2.45;;;8.80;99.90;;;;;;2109499;28;20027;-63
2021/05/05 00:56:52;;;;;;;21.55;2.95;;;8.90;99.90;;;;;;2105191;28;20086;-63
2021/05/05 00:57:53;;;;;;;17.38;2.70;;;8.90;99.90;;;;;;2105147;28;20073;-63
2021/05/05 00:58:54;;;;;;;26.02;4.72;;;8.90;99.90;;;;;;2105812;28;20027;-63
2021/05/05 00:59:54;;;;;;;24.17;3.45;;;8.90;99.90;;;;;;2106167;28;20024;-69
2021/05/05 01:00:55;;;;;;;23.83;2.47;;;9.10;99.90;;;;;;2106089;28;20073;-64
2021/05/05 01:01:56;;;;;;;18.63;2.95;;;9.10;99.90;;;;;;2105751;28;20043;-63
2021/05/05 01:02:57;;;;;;;28.35;4.20;;;9.20;99.90;;;;;;2103743;28;20028;-63
2021/05/05 01:03:57;;;;;;;27.52;3.22;;;9.20;99.90;;;;;;2105543;28;20022;-64
2021/05/05 01:05:00;;;;;;;32.38;4.25;;;9.20;99.90;;;;;;2098558;28;20059;-65
2021/05/05 01:06:03;;;;;;;30.42;4.05;;;9.10;99.90;;;;;;2102178;28;20435;-66
2021/05/05 01:07:04;;;;;;;32.85;4.60;;;8.80;99.90;;;;;;2113515;28;20020;-65
2021/05/05 01:08:07;;;;;;;45.93;4.67;;;8.50;99.90;;;;;;2113638;28;20650;-65
2021/05/05 01:09:07;;;;;;;;;;;8.30;99.90;;;;;;2106145;28;20383;-65
2021/05/05 01:10:12;;;;;;;28.65;3.83;;;8.10;99.90;;;;;;2105877;28;19903;-63
2021/05/05 01:11:14;;;;;;;32.13;3.70;;;7.90;99.90;;;;;;2103741;28;20023;-65
2021/05/05 01:12:15;;;;;;;38.72;3.58;;;7.80;99.90;;;;;;2110034;28;20027;-65
2021/05/05 01:13:17;;;;;;;31.75;4.75;;;7.70;99.90;;;;;;2112832;28;20149;-66
2021/05/05 01:14:18;;;;;;;39.13;3.92;;;7.70;99.90;;;;;;2108302;28;20024;-65
2021/05/05 01:15:18;;;;;;;38.17;4.70;;;7.70;99.90;;;;;;2113740;28;20138;-65
2021/05/05 01:16:19;;;;;;;35.85;4.25;;;7.70;99.90;;;;;;2105766;28;20016;-65
2021/05/05 01:17:20;;;;;;;29.27;3.75;;;7.80;99.90;;;;;;2113182;28;20514;-66
2021/05/05 01:18:21;;;;;;;25.40;3.58;;;7.80;99.90;;;;;;2113658;28;20020;-65
2021/05/05 01:19:21;;;;;;;19.13;3.63;;;7.80;99.90;;;;;;2100255;28;20542;-67
2021/05/05 01:20:27;;;;;;;20.20;3.70;;;7.80;99.90;;;;;;2097809;28;20021;-66
2021/05/05 01:21:28;;;;;;;21.85;3.13;;;7.80;99.90;;;;;;2105366;28;20020;-66
2021/05/05 01:22:28;;;;;;;27.95;3.30;;;7.80;99.90;;;;;;2105052;28;20066;-66
2021/05/05 01:23:29;;;;;;;30.92;3.55;;;7.70;99.90;;;;;;2098048;28;20026;-66
2021/05/05 01:24:34;;;;;;;27.98;3.75;;;7.70;99.90;;;;;;2100901;28;20039;-65
2021/05/05 01:25:35;;;;;;;18.48;2.67;;;7.70;99.90;;;;;;2104686;28;20024;-65
2021/05/05 01:26:37;;;;;;;24.40;2.83;;;7.60;99.90;;;;;;2104711;28;20020;-65
2021/05/05 01:27:39;;;;;;;17.30;3.22;;;7.70;99.90;;;;;;2103878;28;20473;-65
2021/05/05 01:28:43;;;;;;;14.85;2.38;;;7.70;99.90;;;;;;2105896;28;20019;-65
2021/05/05 01:29:47;;;;;;;18.60;2.40;;;7.70;99.90;;;;;;2101055;28;20013;-64
2021/05/05 01:30:48;;;;;;;24.55;2.45;;;7.70;99.90;;;;;;2097368;28;20662;-65
2021/05/05 01:31:49;;;;;;;16.00;2.63;;;7.70;99.90;;;;;;2096868;28;20025;-64
2021/05/05 01:32:50;;;;;;;15.55;2.92;;;7.70;99.90;;;;;;2097077;28;20033;-64
2021/05/05 01:33:51;;;;;;;17.90;2.72;;;7.70;99.90;;;;;;2097425;28;20025;-64
2021/05/05 01:34:52;;;;;;;16.00;2.03;;;7.70;99.90;;;;;;2097192;28;20074;-64
2021/05/05 01:35:53;;;;;;;20.55;2.60;;;7.70;99.90;;;;;;2097169;28;20055;-64
2021/05/05 01:36:54;;;;;;;13.48;2.35;;;7.60;99.90;;;;;;2096233;28;20508;-64
2021/05/05 01:37:54;;;;;;;15.00;2.55;;;7.60;99.90;;;;;;2096877;28;20484;-64
2021/05/05 01:38:55;;;;;;;18.30;2.42;;;7.60;99.90;;;;;;2097370;28;20021;-64
2021/05/05 01:39:56;;;;;;;20.50;2.78;;;7.60;99.90;;;;;;2097098;28;20660;-63
2021/05/05 01:40:57;;;;;;;16.77;2.58;;;7.60;99.90;;;;;;2097197;28;20021;-64
2021/05/05 01:41:58;;;;;;;20.40;3.05;;;7.70;99.90;;;;;;2096919;28;20027;-63
2021/05/05 01:43:00;;;;;;;19.33;3.42;;;7.70;99.90;;;;;;2096499;28;20021;-64
2021/05/05 01:44:01;;;;;;;20.80;3.83;;;7.80;99.90;;;;;;2096865;28;20036;-63
2021/05/05 01:45:02;;;;;;;25.05;2.70;;;7.90;99.90;;;;;;2097099;28;20019;-64
2021/05/05 01:46:04;;;;;;;15.88;3.15;;;7.90;99.90;;;;;;2096754;28;20020;-63
2021/05/05 01:47:06;;;;;;;15.73;2.47;;;7.80;99.90;;;;;;2096771;28;20565;-63
2021/05/05 01:48:08;;;;;;;22.73;2.85;;;7.90;99.90;;;;;;2097261;28;20056;-64
2021/05/05 01:49:09;;;;;;;22.92;3.22;;;7.90;99.90;;;;;;2103284;28;20020;-63
2021/05/05 01:50:11;;;;;;;23.63;2.75;;;8.00;99.90;;;;;;2105144;28;20034;-63
2021/05/05 01:51:12;;;;;;;17.65;2.78;;;8.00;99.90;;;;;;2096947;28;20016;-63
2021/05/05 01:52:14;;;;;;;25.58;3.13;;;8.10;99.90;;;;;;2096274;28;20024;-63
2021/05/05 01:53:16;;;;;;;18.77;2.92;;;8.10;99.90;;;;;;2096650;28;20031;-63
2021/05/05 01:54:17;;;;;;;19.30;2.83;;;8.20;99.90;;;;;;2096452;28;20026;-63
2021/05/05 01:55:18;;;;;;;23.55;3.75;;;8.30;99.90;;;;;;2102895;28;20039;-64
2021/05/05 01:56:20;;;;;;;21.77;4.35;;;8.20;99.90;;;;;;2096465;28;20431;-63
2021/05/05 01:57:35;;;;;;;18.92;3.05;;;8.20;99.90;;;;;;2096478;28;20519;-63
2021/05/05 01:58:36;;;;;;;17.58;2.90;;;8.20;99.90;;;;;;2096793;28;20467;-63
2021/05/05 01:59:37;;;;;;;17.67;3.65;;;8.20;99.90;;;;;;2105592;28;20028;-63
2021/05/05 02:00:38;;;;;;;23.70;3.05;;;8.20;99.90;;;;;;2096161;28;20119;-63
2021/05/05 02:01:39;;;;;;;30.65;2.88;;;8.20;99.90;;;;;;2096974;28;20107;-64
2021/05/05 02:02:40;;;;;;;26.20;3.38;;;8.20;99.90;;;;;;2096996;28;20135;-63
2021/05/05 02:03:40;;;;;;;16.23;2.72;;;8.30;99.90;;;;;;2097054;28;20027;-63
2021/05/05 02:04:41;;;;;;;22.63;2.58;;;8.30;99.90;;;;;;2097210;28;20055;-63
2021/05/05 02:05:42;;;;;;;25.63;3.50;;;8.40;99.90;;;;;;2096695;28;20099;-63
2021/05/05 02:06:42;;;;;;;18.13;2.80;;;8.40;99.90;;;;;;2096232;28;20648;-63
2021/05/05 02:07:43;;;;;;;19.83;3.47;;;8.40;99.90;;;;;;2101277;28;20451;-63
2021/05/05 02:08:44;;;;;;;22.40;3.28;;;8.50;99.90;;;;;;2099161;28;20075;-63
2021/05/05 02:09:45;;;;;;;18.90;3.25;;;8.50;99.90;;;;;;2099176;28;20051;-63
2021/05/05 02:10:46;;;;;;;15.82;2.50;;;8.50;99.90;;;;;;2097223;28;20021;-63
2021/05/05 02:11:46;;;;;;;25.20;2.97;;;8.50;99.90;;;;;;2099721;28;20645;-63
2021/05/05 02:12:47;;;;;;;20.25;2.63;;;8.50;99.90;;;;;;2100759;28;20020;-63
2021/05/05 02:13:48;;;;;;;14.50;2.20;;;8.50;99.90;;;;;;2096670;28;20025;-63
2021/05/05 02:14:49;;;;;;;13.05;2.20;;;8.50;99.90;;;;;;2104232;28;20032;-62
2021/05/05 02:15:50;;;;;;;13.82;2.08;;;8.40;99.90;;;;;;2096862;28;20021;-63
2021/05/05 02:16:59;;;;;;;16.45;1.98;;;8.30;99.90;;;;;;2096981;28;20448;-63
2021/05/05 02:18:00;;;;;;;18.50;2.78;;;8.20;99.90;;;;;;2096866;28;20017;-63
2021/05/05 02:19:00;;;;;;;15.82;3.13;;;8.10;99.90;;;;;;2096251;28;20067;-63
2021/05/05 02:20:01;;;;;;;16.77;2.22;;;8.10;99.90;;;;;;2096584;28;20037;-63
2021/05/05 02:21:02;;;;;;;12.38;1.83;;;8.00;99.90;;;;;;2096156;28;20078;-63
2021/05/05 02:22:03;;;;;;;12.35;2.30;;;8.00;99.90;;;;;;2096200;28;20024;-63
2021/05/05 02:23:04;;;;;;;15.65;2.00;;;8.00;99.90;;;;;;2096167;28;20017;-63
2021/05/05 02:24:05;;;;;;;16.83;2.83;;;7.90;99.90;;;;;;2100171;28;20028;-63
2021/05/05 02:25:08;;;;;;;24.75;2.13;;;7.90;99.90;;;;;;2097067;28;20020;-64
2021/05/05 02:26:08;;;;;;;16.63;2.22;;;7.90;99.90;;;;;;2096576;28;20050;-63
2021/05/05 02:27:09;;;;;;;15.82;3.00;;;7.80;99.90;;;;;;2097085;28;20028;-63
2021/05/05 02:28:10;;;;;;;17.40;2.97;;;7.80;99.90;;;;;;2096975;28;20048;-63
2021/05/05 02:29:11;;;;;;;11.45;2.03;;;7.80;99.90;;;;;;2097165;28;20036;-63
2021/05/05 02:30:13;;;;;;;20.10;3.00;;;7.80;99.90;;;;;;2096252;28;20045;-63
2021/05/05 02:31:14;;;;;;;23.83;3.20;;;7.90;99.90;;;;;;2096167;28;20062;-63
2021/05/05 02:32:19;;;;;;;19.40;2.72;;;7.90;99.90;;;;;;2098983;28;20508;-63
2021/05/05 02:33:19;;;;;;;18.80;2.45;;;8.00;99.90;;;;;;2098188;28;20046;-63
2021/05/05 02:34:20;;;;;;;16.63;3.00;;;8.00;99.90;;;;;;2102383;28;20106;-63
2021/05/05 02:35:21;;;;;;;19.67;2.80;;;8.00;99.90;;;;;;2096292;28;20042;-63
2021/05/05 02:36:22;;;;;;;15.90;2.60;;;8.00;99.90;;;;;;2096613;28;20019;-63
2021/05/05 02:37:23;;;;;;;21.00;2.42;;;8.00;99.90;;;;;;2096821;28;20040;-63
2021/05/05 02:38:23;;;;;;;21.50;3.00;;;8.00;99.90;;;;;;2096094;28;20024;-63
2021/05/05 02:39:24;;;;;;;21.70;3.30;;;8.10;99.90;;;;;;2096371;28;20032;-63
2021/05/05 02:40:25;;;;;;;17.25;3.10;;;8.10;99.90;;;;;;2095992;28;20619;-63
2021/05/05 02:41:25;;;;;;;17.67;2.72;;;8.20;99.90;;;;;;2099875;28;20625;-63
2021/05/05 02:42:26;;;;;;;24.83;3.38;;;8.30;99.90;;;;;;2096908;28;20028;-63
2021/05/05 02:43:27;;;;;;;41.42;4.50;;;8.30;99.90;;;;;;2102047;28;20103;-63
2021/05/05 02:44:27;;;;;;;18.98;3.17;;;8.40;99.90;;;;;;2104633;28;20524;-63
2021/05/05 02:45:28;;;;;;;23.48;4.25;;;8.40;99.90;;;;;;2096635;28;20475;-63
2021/05/05 02:46:29;;;;;;;27.95;2.97;;;8.40;99.90;;;;;;2096732;28;20021;-64
2021/05/05 02:47:29;;;;;;;15.10;2.55;;;8.50;99.90;;;;;;2096806;28;20762;-63
2021/05/05 02:48:30;;;;;;;21.67;3.35;;;8.50;99.90;;;;;;2096914;28;20530;-63
2021/05/05 02:49:31;;;;;;;21.95;3.22;;;8.60;99.90;;;;;;2096065;28;20427;-64
2021/05/05 02:50:32;;;;;;;19.30;2.60;;;8.70;99.90;;;;;;2096536;28;20032;-63
2021/05/05 02:51:33;;;;;;;15.05;2.50;;;8.70;99.90;;;;;;2096721;28;20059;-63
2021/05/05 02:52:34;;;;;;;15.18;2.75;;;8.80;99.90;;;;;;2095700;28;20024;-63
2021/05/05 02:53:35;;;;;;;21.42;3.95;;;8.80;99.90;;;;;;2088435;28;20029;-63
2021/05/05 02:54:35;;;;;;;26.02;2.65;;;8.90;99.90;;;;;;2103044;28;20052;-63
2021/05/05 02:55:36;;;;;;;20.70;3.08;;;8.80;99.90;;;;;;2097017;28;20021;-63
2021/05/05 02:56:37;;;;;;;27.17;2.90;;;8.80;99.90;;;;;;2096897;28;20021;-63
2021/05/05 02:57:38;;;;;;;18.35;3.22;;;8.80;99.90;;;;;;2096967;28;20020;-63
2021/05/05 02:58:38;;;;;;;19.40;3.45;;;8.80;99.90;;;;;;2097147;28;20478;-63
2021/05/05 02:59:39;;;;;;;16.27;2.65;;;8.90;99.90;;;;;;2105379;28;20031;-63
2021/05/05 03:00:40;;;;;;;16.58;2.15;;;8.80;99.90;;;;;;2101867;28;20044;-63
2021/05/05 03:01:41;;;;;;;18.13;3.33;;;8.80;99.90;;;;;;2096213;28;20133;-64
2021/05/05 03:02:41;;;;;;;18.42;2.50;;;8.80;99.90;;;;;;2097619;28;20020;-63
2021/05/05 03:03:42;;;;;;;18.13;3.03;;;8.80;99.90;;;;;;2104474;28;20066;-63
2021/05/05 03:04:43;;;;;;;18.92;3.03;;;8.80;99.90;;;;;;2096732;28;20029;-63
2021/05/05 03:05:43;;;;;;;11.20;2.45;;;8.80;99.90;;;;;;2096524;28;20024;-63
2021/05/05 03:06:44;;;;;;;15.85;2.42;;;8.80;99.90;;;;;;2097002;28;20377;-63
2021/05/05 03:07:45;;;;;;;14.25;2.65;;;8.80;99.90;;;;;;2096823;28;20059;-63
2021/05/05 03:08:46;;;;;;;19.55;2.22;;;8.80;99.90;;;;;;2096536;28;20048;-63
2021/05/05 03:09:46;;;;;;;18.27;2.50;;;8.80;99.90;;;;;;2096075;28;20047;-63
2021/05/05 03:10:48;;;;;;;19.77;2.58;;;8.80;99.90;;;;;;2100624;28;20020;-63
2021/05/05 03:11:49;;;;;;;20.35;2.75;;;8.90;99.90;;;;;;2099352;28;20039;-64
2021/05/05 03:12:49;;;;;;;17.33;2.72;;;8.90;99.90;;;;;;2099682;28;20027;-63
2021/05/05 03:13:50;;;;;;;13.10;2.22;;;8.90;99.90;;;;;;2096736;28;20103;-63
2021/05/05 03:14:51;;;;;;;27.63;2.92;;;8.70;99.90;;;;;;2096701;28;20028;-63
2021/05/05 03:15:51;;;;;;;19.67;2.90;;;8.70;99.90;;;;;;2098489;28;20032;-63
2021/05/05 03:16:56;;;;;;;13.15;2.47;;;8.70;99.90;;;;;;2104667;28;20063;-63
2021/05/05 03:17:57;;;;;;;14.52;2.33;;;8.70;99.90;;;;;;2102654;28;20028;-63
2021/05/05 03:18:58;;;;;;;13.25;2.58;;;8.70;99.90;;;;;;2112869;28;20024;-63
2021/05/05 03:19:58;;;;;;;15.88;2.58;;;8.70;99.90;;;;;;2103824;28;20024;-63
2021/05/05 03:21:00;;;;;;;16.73;2.90;;;8.70;99.90;;;;;;2093613;28;20488;-63
2021/05/05 03:22:00;;;;;;;20.88;2.47;;;8.70;99.90;;;;;;2096305;28;20044;-63
2021/05/05 03:23:01;;;;;;;16.90;2.40;;;8.80;99.90;;;;;;2096734;28;20017;-63
2021/05/05 03:24:02;;;;;;;14.93;2.72;;;8.70;99.90;;;;;;2095806;28;20024;-63
2021/05/05 03:25:04;;;;;;;19.52;2.53;;;8.70;99.90;;;;;;2096720;28;20051;-63
2021/05/05 03:26:05;;;;;;;14.25;2.22;;;8.70;99.90;;;;;;2096651;28;20017;-63
2021/05/05 03:27:06;;;;;;;23.55;3.03;;;8.70;99.90;;;;;;2096204;28;20495;-63
2021/05/05 03:28:08;;;;;;;17.38;2.90;;;8.70;99.90;;;;;;2096001;28;20623;-63
2021/05/05 03:29:08;;;;;;;17.00;2.20;;;8.70;99.90;;;;;;2096256;28;20045;-63
2021/05/05 03:30:10;;;;;;;24.65;2.58;;;8.70;99.90;;;;;;2099256;28;20035;-63
2021/05/05 03:31:10;;;;;;;17.52;2.85;;;8.70;99.90;;;;;;2102841;28;20384;-63
2021/05/05 03:32:11;;;;;;;14.75;2.63;;;8.80;99.90;;;;;;2096535;28;20041;-64
2021/05/05 03:33:12;;;;;;;19.95;2.58;;;8.80;99.90;;;;;;2096694;28;20021;-63
2021/05/05 03:34:13;;;;;;;17.15;2.47;;;8.90;99.90;;;;;;2096934;28;20020;-63
2021/05/05 03:35:13;;;;;;;15.18;2.90;;;8.90;99.90;;;;;;2096528;28;20492;-63
2021/05/05 03:36:14;;;;;;;20.05;2.40;;;8.80;99.90;;;;;;2096111;28;20032;-63
2021/05/05 03:37:15;;;;;;;17.75;2.50;;;8.80;99.90;;;;;;2096667;28;20091;-63
2021/05/05 03:38:16;;;;;;;16.27;2.85;;;8.90;99.90;;;;;;2096479;28;20113;-63
2021/05/05 03:39:16;;;;;;;19.00;3.22;;;8.90;99.90;;;;;;2096466;28;20016;-63
2021/05/05 03:40:17;;;;;;;11.60;2.33;;;8.90;99.90;;;;;;2096272;28;20028;-63
2021/05/05 03:41:18;;;;;;;22.48;3.58;;;8.80;99.90;;;;;;2096755;28;20099;-63
2021/05/05 03:42:18;;;;;;;15.73;2.97;;;8.80;99.90;;;;;;2096550;28;20032;-63
2021/05/05 03:43:19;;;;;;;16.27;2.67;;;8.80;99.90;;;;;;2096132;28;20020;-64
2021/05/05 03:44:20;;;;;;;16.67;2.55;;;8.80;99.90;;;;;;2096314;28;20021;-63
2021/05/05 03:45:21;;;;;;;20.05;3.20;;;8.80;99.90;;;;;;2101679;28;20544;-63
2021/05/05 03:46:22;;;;;;;20.77;2.58;;;8.90;99.90;;;;;;2103615;28;20530;-63
2021/05/05 03:47:22;;;;;;;24.98;3.40;;;8.90;99.90;;;;;;2096448;28;20020;-63
2021/05/05 03:48:24;;;;;;;15.00;2.17;;;8.90;99.90;;;;;;2097198;28;20032;-63
2021/05/05 03:49:25;;;;;;;20.23;2.72;;;8.90;99.90;;;;;;2101929;28;20519;-63
2021/05/05 03:50:26;;;;;;;18.67;2.38;;;8.90;99.90;;;;;;2097916;28;20036;-63
2021/05/05 03:51:27;;;;;;;18.13;2.80;;;8.90;99.90;;;;;;2098226;28;20016;-63
2021/05/05 03:52:28;;;;;;;22.65;2.85;;;8.90;99.90;;;;;;2097749;28;20907;-63
2021/05/05 03:53:29;;;;;;;17.65;2.92;;;8.90;99.90;;;;;;2102784;28;20004;-63
2021/05/05 03:54:30;;;;;;;16.88;2.40;;;8.90;99.90;;;;;;2097861;28;20077;-63
2021/05/05 03:55:31;;;;;;;18.80;3.10;;;8.80;99.90;;;;;;2098394;28;20028;-63
2021/05/05 03:56:32;;;;;;;18.10;2.65;;;8.80;99.90;;;;;;2098317;28;20052;-63
2021/05/05 03:57:32;;;;;;;18.50;2.58;;;8.80;99.90;;;;;;2098144;28;20512;-63
2021/05/05 03:58:33;;;;;;;17.70;2.53;;;8.80;99.90;;;;;;2097263;28;20142;-63
2021/05/05 03:59:35;;;;;;;13.93;2.20;;;8.80;99.90;;;;;;2097424;28;20727;-63
2021/05/05 04:00:35;;;;;;;21.63;2.85;;;8.80;99.90;;;;;;2097812;28;20013;-64
2021/05/05 04:01:36;;;;;;;22.63;2.90;;;8.90;99.90;;;;;;2104288;28;20392;-64
2021/05/05 04:02:37;;;;;;;19.92;2.55;;;8.80;99.90;;;;;;2106171;28;20024;-63
2021/05/05 04:03:37;;;;;;;11.75;1.83;;;8.90;99.90;;;;;;2106718;28;20025;-63
2021/05/05 04:04:38;;;;;;;15.13;2.70;;;8.90;99.90;;;;;;2106339;28;20024;-64
2021/05/05 04:05:39;;;;;;;19.23;3.03;;;8.90;99.90;;;;;;2105859;28;20020;-63
2021/05/05 04:06:39;;;;;;;24.88;2.95;;;8.90;99.90;;;;;;2105727;28;20073;-64
2021/05/05 04:07:40;;;;;;;21.80;3.42;;;8.90;99.90;;;;;;2096097;28;20025;-63
2021/05/05 04:08:40;;;;;;;20.80;2.70;;;8.80;99.90;;;;;;2105842;28;20024;-64
2021/05/05 04:09:42;;;;;;;15.40;2.60;;;8.80;99.90;;;;;;2105505;28;20048;-63
2021/05/05 04:10:43;;;;;;;16.23;2.50;;;8.80;99.90;;;;;;2097292;28;20400;-64
2021/05/05 04:11:43;;;;;;;13.13;2.20;;;8.80;99.90;;;;;;2105774;28;20020;-63
2021/05/05 04:12:44;;;;;;;11.18;2.40;;;8.80;99.90;;;;;;2106498;28;20024;-64
2021/05/05 04:13:45;;;;;;;15.80;4.18;;;8.80;99.90;;;;;;2104655;28;20033;-63
2021/05/05 04:14:46;;;;;;;18.45;2.78;;;8.80;99.90;;;;;;2098653;28;20139;-63
2021/05/05 04:15:46;;;;;;;14.10;2.33;;;8.70;99.90;;;;;;2098545;28;20048;-63
2021/05/05 04:16:47;;;;;;;19.38;2.38;;;8.70;99.90;;;;;;2105707;28;20028;-63
2021/05/05 04:17:48;;;;;;;16.05;2.28;;;8.70;99.90;;;;;;2105678;28;20530;-63
2021/05/05 04:18:48;;;;;;;15.15;2.45;;;8.70;99.90;;;;;;2105597;28;20024;-63
2021/05/05 04:19:51;;;;;;;12.70;2.38;;;8.70;99.90;;;;;;2101964;28;20048;-63
2021/05/05 04:20:54;;;;;;;14.07;2.60;;;8.80;99.90;;;;;;2103804;28;20028;-63
2021/05/05 04:21:55;;;;;;;17.63;2.60;;;8.80;99.90;;;;;;2097956;28;20060;-63
2021/05/05 04:22:56;;;;;;;19.10;2.88;;;8.80;99.90;;;;;;2102154;28;20065;-63
2021/05/05 04:23:57;;;;;;;20.42;2.42;;;8.70;99.90;;;;;;2106409;28;20039;-63
2021/05/05 04:24:57;;;;;;;13.75;2.15;;;8.70;99.90;;;;;;2104733;28;20031;-63
2021/05/05 04:25:58;;;;;;;25.77;2.90;;;8.60;99.90;;;;;;2103293;28;20065;-63
2021/05/05 04:26:59;;;;;;;16.75;2.63;;;8.60;99.90;;;;;;2106225;28;20019;-63
2021/05/05 04:28:00;;;;;;;16.07;2.00;;;8.60;99.90;;;;;;2106284;28;20016;-63
2021/05/05 04:29:00;;;;;;;13.45;2.22;;;8.60;99.90;;;;;;2106208;28;20264;-63
2021/05/05 04:30:02;;;;;;;21.42;2.20;;;8.50;99.90;;;;;;2106273;28;20020;-63
2021/05/05 04:31:05;;;;;;;13.02;1.80;;;8.50;99.90;;;;;;2105388;28;20115;-63
2021/05/05 04:32:06;;;;;;;11.15;2.75;;;8.50;99.90;;;;;;2105594;28;20032;-63
2021/05/05 04:33:07;;;;;;;13.52;2.58;;;8.40;99.90;;;;;;2106314;28;20070;-63
2021/05/05 04:34:08;;;;;;;11.70;1.95;;;8.40;99.90;;;;;;2106156;28;20116;-64
2021/05/05 04:35:09;;;;;;;14.35;2.58;;;8.50;99.90;;;;;;2103393;28;20035;-64
2021/05/05 04:36:10;;;;;;;12.27;2.10;;;8.50;99.90;;;;;;2099179;28;20035;-64
2021/05/05 04:37:11;;;;;;;19.02;2.80;;;8.40;99.90;;;;;;2101807;28;20025;-64
2021/05/05 04:38:13;;;;;;;16.60;2.30;;;8.40;99.90;;;;;;2101956;28;20020;-64
2021/05/05 04:39:13;;;;;;;19.52;2.53;;;8.40;99.90;;;;;;2106229;28;20566;-63
2021/05/05 04:40:14;;;;;;;23.33;2.95;;;8.40;99.90;;;;;;2105890;28;20040;-63
2021/05/05 04:41:15;;;;;;;14.45;2.22;;;8.40;99.90;;;;;;2106177;28;20534;-63
2021/05/05 04:42:16;;;;;;;13.20;2.03;;;8.50;99.90;;;;;;2101455;28;20049;-63
2021/05/05 04:43:17;;;;;;;15.15;2.15;;;8.50;99.90;;;;;;2097967;28;20027;-64
2021/05/05 04:44:17;;;;;;;12.68;2.60;;;8.50;99.90;;;;;;2102164;28;20025;-63
2021/05/05 04:45:18;;;;;;;12.77;2.40;;;8.50;99.90;;;;;;2104095;28;20012;-63
2021/05/05 04:46:19;;;;;;;18.50;2.45;;;8.50;99.90;;;;;;2106201;28;20054;-63
2021/05/05 04:47:20;;;;;;;12.30;2.03;;;8.50;99.90;;;;;;2100788;28;20412;-63
2021/05/05 04:48:20;;;;;;;11.45;2.60;;;8.40;99.90;;;;;;2098157;28;20017;-63
2021/05/05 04:49:21;;;;;;;14.02;3.30;;;8.50;99.90;;;;;;2102027;28;20123;-63
2021/05/05 04:50:22;;;;;;;16.70;2.92;;;8.40;99.90;;;;;;2098391;28;20102;-63
2021/05/05 04:51:22;;;;;;;19.00;2.25;;;8.40;99.90;;;;;;2098723;28;20032;-63
2021/05/05 04:52:23;;;;;;;16.10;2.38;;;8.40;99.90;;;;;;2097589;28;20028;-63
2021/05/05 04:53:24;;;;;;;20.52;3.50;;;8.40;99.90;;;;;;2097577;28;20048;-64
2021/05/05 04:54:24;;;;;;;16.52;2.53;;;8.40;99.90;;;;;;2097660;28;20032;-63
2021/05/05 04:55:25;;;;;;;15.20;2.17;;;8.40;99.90;;;;;;2097055;28;20024;-63
2021/05/05 04:56:26;;;;;;;12.82;2.53;;;8.30;99.90;;;;;;2105607;28;20077;-63
2021/05/05 04:57:27;;;;;;;19.48;2.63;;;8.30;99.90;;;;;;2096894;28;20032;-63
2021/05/05 04:58:27;;;;;;;21.02;4.20;;;8.40;99.90;;;;;;2103011;28;20103;-63
2021/05/05 04:59:28;;;;;;;13.07;2.10;;;8.40;99.90;;;;;;2098503;28;20025;-63
2021/05/05 05:00:29;;;;;;;14.88;2.25;;;8.50;99.90;;;;;;2097397;28;20024;-63
2021/05/05 05:01:30;;;;;;;21.13;2.70;;;8.50;99.90;;;;;;2096359;28;20024;-63
2021/05/05 05:02:31;;;;;;;19.00;2.75;;;8.60;99.90;;;;;;2097215;28;20450;-63
2021/05/05 05:03:32;;;;;;;14.43;2.60;;;8.70;99.90;;;;;;2099081;28;20537;-63
2021/05/05 05:04:33;;;;;;;11.40;1.90;;;8.80;99.90;;;;;;2105020;28;20113;-64
2021/05/05 05:05:33;;;;;;;15.55;2.38;;;8.90;99.90;;;;;;2104057;28;20107;-63
2021/05/05 05:06:34;;;;;;;9.90;1.88;;;9.00;99.90;;;;;;2098512;28;20036;-63
2021/05/05 05:07:35;;;;;;;13.43;2.50;;;9.10;99.90;;;;;;2101667;28;20024;-63
2021/05/05 05:08:36;;;;;;;14.60;3.00;;;9.10;99.90;;;;;;2104728;28;20031;-63
2021/05/05 05:09:37;;;;;;;15.30;2.00;;;9.10;99.90;;;;;;2098893;28;20017;-63
2021/05/05 05:10:37;;;;;;;14.10;2.40;;;9.20;99.90;;;;;;2096580;28;20029;-63
2021/05/05 05:11:38;;;;;;;20.90;2.20;;;9.20;99.90;;;;;;2098231;28;20017;-63
2021/05/05 05:12:38;;;;;;;14.57;2.15;;;9.20;99.90;;;;;;2101282;28;20020;-63
2021/05/05 05:13:40;;;;;;;12.52;2.53;;;9.20;99.90;;;;;;2103283;28;20017;-63
2021/05/05 05:14:40;;;;;;;17.30;2.83;;;9.20;99.90;;;;;;2100081;28;20103;-63
2021/05/05 05:15:41;;;;;;;12.85;2.10;;;9.20;99.90;;;;;;2103625;28;20423;-63
2021/05/05 05:16:41;;;;;;;21.67;3.20;;;9.10;99.90;;;;;;2098835;28;20070;-63
2021/05/05 05:17:43;;;;;;;20.23;3.08;;;9.10;99.90;;;;;;2103689;28;20069;-63
2021/05/05 05:18:43;;;;;;;10.52;2.13;;;9.00;99.90;;;;;;2104871;28;20020;-63